Time;durP1;ratioP1;P1;durP2;ratioP2;P2;SDS_P1;SDS_P2;PMS_P1;PMS_P2;Temp;Humidity;BMP_temperature;BMP_pressure;BME280_temperature;BME280_humidity;BME280_pressure;Samples;Min_cycle;Max_cycle;Signal;HPM_P1;HPM_P2
2022/04/24 00:01:18;;;;;;;6.40;6.00;;;9.30;99.90;;;;;;6335426;27;20315;-53
2022/04/24 00:04:23;;;;;;;7.17;6.57;;;9.20;99.90;;;;;;6334649;28;20228;-54
2022/04/24 00:07:26;;;;;;;6.83;6.43;;;9.20;99.90;;;;;;6336629;27;20681;-55
2022/04/24 00:10:29;;;;;;;7.03;6.43;;;9.20;99.90;;;;;;6327641;27;20250;-55
2022/04/24 00:13:37;;;;;;;6.50;6.10;;;9.20;99.90;;;;;;6337409;28;20255;-54
2022/04/24 00:16:41;;;;;;;6.90;6.50;;;9.10;99.90;;;;;;6337002;27;20244;-55
2022/04/24 00:19:44;;;;;;;6.57;6.17;;;9.10;99.90;;;;;;6321445;28;20259;-54
2022/04/24 00:22:47;;;;;;;7.10;6.33;;;9.00;99.90;;;;;;6336003;28;20749;-54
2022/04/24 00:25:50;;;;;;;7.63;6.93;;;9.00;99.90;;;;;;6325444;27;20455;-54
2022/04/24 00:28:54;;;;;;;7.07;6.67;;;9.00;99.90;;;;;;6309483;28;20818;-53
2022/04/24 00:31:57;;;;;;;6.80;6.40;;;8.90;99.90;;;;;;6310458;28;20229;-54
2022/04/24 00:35:00;;;;;;;6.90;6.27;;;8.90;99.90;;;;;;6330815;27;20783;-54
2022/04/24 00:38:02;;;;;;;8.17;6.50;;;8.90;99.90;;;;;;6335568;27;20228;-53
2022/04/24 00:41:05;;;;;;;7.43;6.80;;;8.80;99.90;;;;;;6323300;27;20280;-54
2022/04/24 00:44:09;;;;;;;7.03;6.53;;;8.80;99.90;;;;;;6320999;28;20331;-55
2022/04/24 00:47:16;;;;;;;7.53;6.87;;;8.80;99.90;;;;;;6309884;28;20266;-55
2022/04/24 00:50:20;;;;;;;7.27;6.67;;;8.80;99.90;;;;;;6316831;28;20228;-55
2022/04/24 00:53:22;;;;;;;8.00;7.10;;;8.70;99.90;;;;;;6333847;28;20265;-54
2022/04/24 00:56:30;;;;;;;7.57;7.03;;;8.70;99.90;;;;;;6322710;28;20279;-54
2022/04/24 00:59:34;;;;;;;8.20;7.60;;;8.60;99.90;;;;;;6280778;28;20233;-54
2022/04/24 01:02:38;;;;;;;7.70;7.10;;;8.60;99.90;;;;;;6288878;28;20725;-54
2022/04/24 01:05:42;;;;;;;7.83;7.13;;;8.50;99.90;;;;;;6310277;27;20466;-54
2022/04/24 01:08:44;;;;;;;7.17;6.67;;;8.50;99.90;;;;;;6304143;28;20325;-53
2022/04/24 01:11:49;;;;;;;8.10;7.50;;;8.40;99.90;;;;;;6305536;28;20323;-55
2022/04/24 01:14:53;;;;;;;7.90;7.30;;;8.40;99.90;;;;;;6308608;28;20374;-55
2022/04/24 01:17:57;;;;;;;8.37;7.67;;;8.40;99.90;;;;;;6292669;28;20286;-54
2022/04/24 01:21:08;;;;;;;8.43;7.60;;;8.30;99.90;;;;;;6299878;28;20331;-54
2022/04/24 01:24:11;;;;;;;7.90;7.27;;;8.30;99.90;;;;;;6309005;28;20310;-55
2022/04/24 01:27:14;;;;;;;8.47;7.67;;;8.30;99.90;;;;;;6304292;28;20240;-53
2022/04/24 01:30:17;;;;;;;7.83;7.37;;;8.20;99.90;;;;;;6309097;28;20235;-54
2022/04/24 01:33:19;;;;;;;8.20;7.47;;;8.20;99.90;;;;;;6305584;28;20327;-54
2022/04/24 01:36:24;;;;;;;7.93;7.50;;;8.20;99.90;;;;;;6306061;27;20256;-55
2022/04/24 01:39:27;;;;;;;8.37;7.53;;;8.10;99.90;;;;;;6301939;28;20482;-56
2022/04/24 01:42:30;;;;;;;7.67;6.97;;;8.10;99.90;;;;;;6300430;28;20237;-56
2022/04/24 01:45:32;;;;;;;9.77;7.60;;;8.10;99.90;;;;;;6284587;28;20448;-55
2022/04/24 01:48:36;;;;;;;8.03;7.40;;;8.10;99.90;;;;;;6289088;28;20225;-53
2022/04/24 01:51:40;;;;;;;8.03;7.30;;;8.00;99.90;;;;;;6294550;28;20301;-54
2022/04/24 01:54:43;;;;;;;8.37;7.67;;;8.00;99.90;;;;;;6302336;28;20764;-55
2022/04/24 01:57:45;;;;;;;7.83;7.33;;;7.90;99.90;;;;;;6307398;28;20780;-56
2022/04/24 02:00:48;;;;;;;8.67;7.47;;;7.90;99.90;;;;;;6308869;28;20550;-54
2022/04/24 02:03:51;;;;;;;8.33;7.67;;;8.00;99.90;;;;;;6291913;28;20263;-55
2022/04/24 02:06:55;;;;;;;7.70;7.20;;;7.80;99.90;;;;;;6299677;28;20232;-54
2022/04/24 02:09:58;;;;;;;7.83;7.17;;;7.80;99.90;;;;;;6304993;28;20232;-55
2022/04/24 02:13:00;;;;;;;7.90;7.30;;;7.70;99.90;;;;;;6309026;28;20248;-55
2022/04/24 02:16:04;;;;;;;8.90;8.03;;;7.70;99.90;;;;;;6287924;28;20328;-54
2022/04/24 02:19:07;;;;;;;7.97;7.37;;;7.70;99.90;;;;;;6290034;28;20666;-54
2022/04/24 02:22:11;;;;;;;8.20;7.33;;;7.60;99.90;;;;;;6307618;28;20244;-54
2022/04/24 02:25:15;;;;;;;8.20;7.47;;;7.60;99.90;;;;;;6303694;28;20655;-55
2022/04/24 02:28:17;;;;;;;8.13;7.30;;;7.60;99.90;;;;;;6282741;28;21321;-55
2022/04/24 02:31:20;;;;;;;9.47;7.60;;;7.60;99.90;;;;;;6283403;28;20265;-55
2022/04/24 02:34:23;;;;;;;9.70;7.87;;;7.70;99.90;;;;;;6293183;28;20704;-54
2022/04/24 02:37:27;;;;;;;8.67;8.00;;;7.50;99.90;;;;;;6304258;28;20319;-55
2022/04/24 02:40:30;;;;;;;10.30;7.90;;;7.50;99.90;;;;;;6303511;28;20270;-54
2022/04/24 02:43:32;;;;;;;8.20;7.50;;;7.50;99.90;;;;;;6296891;28;20310;-55
2022/04/24 02:46:35;;;;;;;9.50;8.70;;;7.40;99.90;;;;;;6282752;28;20418;-54
2022/04/24 02:49:38;;;;;;;8.37;7.73;;;7.40;99.90;;;;;;6281387;28;21235;-53
2022/04/24 02:52:50;;;;;;;8.73;7.83;;;7.40;99.90;;;;;;6304368;28;20498;-55
2022/04/24 02:55:52;;;;;;;8.53;7.73;;;7.30;99.90;;;;;;6303367;28;20324;-51
2022/04/24 02:58:55;;;;;;;9.97;8.90;;;7.40;99.90;;;;;;6306615;28;20257;-52
2022/04/24 03:01:58;;;;;;;8.87;7.93;;;7.40;99.90;;;;;;6284940;28;20332;-55
2022/04/24 03:05:01;;;;;;;8.40;7.63;;;7.30;99.90;;;;;;6290687;28;20268;-54
2022/04/24 03:08:06;;;;;;;8.20;7.50;;;7.30;99.90;;;;;;6290146;28;20232;-55
2022/04/24 03:11:15;;;;;;;8.53;7.73;;;7.20;99.90;;;;;;6304151;28;20308;-53
2022/04/24 03:14:17;;;;;;;8.77;7.93;;;7.20;99.90;;;;;;6312449;28;20406;-55
2022/04/24 03:17:20;;;;;;;8.60;7.93;;;6.90;99.90;;;;;;6303972;28;20426;-54
2022/04/24 03:20:23;;;;;;;8.43;7.63;;;7.10;99.90;;;;;;6296744;28;20327;-55
2022/04/24 03:23:27;;;;;;;9.73;7.80;;;7.10;99.90;;;;;;6311641;28;20744;-54
2022/04/24 03:26:30;;;;;;;9.17;8.30;;;7.30;99.90;;;;;;6296225;28;20717;-55
2022/04/24 03:29:33;;;;;;;11.07;9.43;;;7.10;99.90;;;;;;6285816;28;20236;-55
2022/04/24 03:32:36;;;;;;;10.27;8.87;;;7.20;99.90;;;;;;6296130;27;20259;-54
2022/04/24 03:35:39;;;;;;;8.97;8.17;;;6.80;99.90;;;;;;6336591;28;20784;-54
2022/04/24 03:38:43;;;;;;;10.50;9.43;;;7.00;99.90;;;;;;6335314;27;20322;-56
2022/04/24 03:41:46;;;;;;;9.40;8.57;;;6.90;99.90;;;;;;6329650;28;20319;-55
2022/04/24 03:44:49;;;;;;;9.17;8.20;;;7.10;99.90;;;;;;6335386;27;20232;-53
2022/04/24 03:47:52;;;;;;;9.20;8.40;;;6.90;99.90;;;;;;6342447;27;20314;-54
2022/04/24 03:50:55;;;;;;;9.30;8.57;;;6.80;99.90;;;;;;6328110;28;20242;-54
2022/04/24 03:53:59;;;;;;;9.03;8.10;;;7.00;99.90;;;;;;6334411;28;20270;-55
2022/04/24 03:57:01;;;;;;;10.47;8.77;;;6.70;99.90;;;;;;6333056;28;20362;-55
2022/04/24 04:00:07;;;;;;;10.27;8.80;;;6.70;99.90;;;;;;6334471;27;20328;-56
2022/04/24 04:03:10;;;;;;;9.43;8.60;;;6.70;99.90;;;;;;6338931;27;20364;-56
2022/04/24 04:06:13;;;;;;;9.53;8.63;;;6.70;99.90;;;;;;6331585;28;20243;-55
2022/04/24 04:09:17;;;;;;;9.50;8.60;;;6.60;99.90;;;;;;6334966;28;20816;-54
2022/04/24 04:12:20;;;;;;;9.57;8.67;;;6.60;99.90;;;;;;6333654;28;20247;-54
2022/04/24 04:15:24;;;;;;;9.80;8.80;;;6.70;99.90;;;;;;6331569;28;20353;-53
2022/04/24 04:18:27;;;;;;;9.13;8.33;;;6.60;99.90;;;;;;6333369;27;20249;-55
2022/04/24 04:21:30;;;;;;;9.60;8.80;;;6.80;99.90;;;;;;6335797;28;20421;-55
2022/04/24 04:24:34;;;;;;;12.00;9.30;;;6.80;99.90;;;;;;6333655;27;20284;-55
2022/04/24 04:27:37;;;;;;;9.80;8.87;;;6.60;99.90;;;;;;6332952;28;20501;-55
2022/04/24 04:30:39;;;;;;;10.13;9.10;;;6.60;99.90;;;;;;6336250;28;20224;-54
2022/04/24 04:33:42;;;;;;;10.03;8.73;;;6.70;99.90;;;;;;6331509;27;20768;-55
2022/04/24 04:36:45;;;;;;;9.70;8.60;;;6.70;99.90;;;;;;6332599;27;20338;-54
2022/04/24 04:39:49;;;;;;;9.27;8.47;;;6.70;99.90;;;;;;6326223;28;20869;-55
2022/04/24 04:42:52;;;;;;;12.80;8.70;;;6.80;99.90;;;;;;6334760;27;20232;-55
2022/04/24 04:45:54;;;;;;;9.50;8.70;;;6.80;99.90;;;;;;6333608;27;20489;-55
2022/04/24 04:48:57;;;;;;;11.37;8.57;;;7.10;99.90;;;;;;6331396;27;20228;-55
2022/04/24 04:52:00;;;;;;;10.33;9.27;;;6.90;99.90;;;;;;6331886;28;20240;-54
2022/04/24 04:55:05;;;;;;;9.57;8.70;;;6.90;99.90;;;;;;6320040;27;20739;-54
2022/04/24 04:58:08;;;;;;;9.63;8.93;;;7.00;99.90;;;;;;6334219;28;20315;-55
2022/04/24 05:01:11;;;;;;;9.90;9.10;;;7.30;99.90;;;;;;6332460;28;20519;-54
2022/04/24 05:04:14;;;;;;;10.17;9.13;;;7.10;99.90;;;;;;6335208;28;20250;-54
2022/04/24 05:07:17;;;;;;;9.70;8.80;;;7.10;99.90;;;;;;6331868;27;20263;-55
2022/04/24 05:10:21;;;;;;;9.00;8.20;;;7.20;99.90;;;;;;6333858;27;20299;-56
2022/04/24 05:13:24;;;;;;;9.80;9.00;;;7.20;99.90;;;;;;6337588;27;20696;-54
2022/04/24 05:16:26;;;;;;;10.33;9.30;;;7.30;99.90;;;;;;6334487;27;20318;-54
2022/04/24 05:19:29;;;;;;;9.70;8.73;;;7.40;99.90;;;;;;6330098;28;20700;-61
2022/04/24 05:22:32;;;;;;;9.87;8.90;;;7.50;99.90;;;;;;6334667;27;20236;-54
2022/04/24 05:25:36;;;;;;;9.50;8.60;;;7.70;99.90;;;;;;6307186;28;20232;-55
2022/04/24 05:28:39;;;;;;;9.93;9.03;;;7.80;99.90;;;;;;6322440;27;20238;-55
2022/04/24 05:31:42;;;;;;;9.63;8.83;;;7.90;99.90;;;;;;6334436;27;20368;-55
2022/04/24 05:34:45;;;;;;;10.20;9.20;;;8.20;99.90;;;;;;6327707;27;20674;-53
2022/04/24 05:37:49;;;;;;;10.40;9.53;;;8.40;99.90;;;;;;6307780;28;20254;-55
2022/04/24 05:40:53;;;;;;;9.27;8.40;;;8.60;99.90;;;;;;6306733;28;20319;-54
2022/04/24 05:43:55;;;;;;;9.07;8.50;;;8.90;99.90;;;;;;6305730;28;20242;-53
2022/04/24 05:46:59;;;;;;;10.70;8.27;;;9.20;99.90;;;;;;6309332;28;20402;-55
2022/04/24 05:50:02;;;;;;;9.10;8.23;;;9.40;99.90;;;;;;6307802;28;20303;-56
2022/04/24 05:53:05;;;;;;;9.43;8.47;;;9.60;99.90;;;;;;6300676;28;20319;-53
2022/04/24 05:56:09;;;;;;;8.90;8.13;;;9.60;99.90;;;;;;6306611;28;20248;-55
2022/04/24 05:59:12;;;;;;;9.93;9.07;;;9.60;99.90;;;;;;6321113;27;20235;-54
2022/04/24 06:02:15;;;;;;;10.07;9.07;;;9.60;99.90;;;;;;6321286;27;20546;-55
2022/04/24 06:05:18;;;;;;;11.10;9.00;;;9.50;99.90;;;;;;6306017;28;20682;-54
2022/04/24 06:08:20;;;;;;;9.40;8.57;;;9.50;99.90;;;;;;6306205;28;20611;-55
2022/04/24 06:11:24;;;;;;;9.73;8.80;;;9.50;99.90;;;;;;6302428;28;20327;-55
2022/04/24 06:14:27;;;;;;;9.10;8.40;;;9.60;99.90;;;;;;6308161;28;20281;-54
2022/04/24 06:17:30;;;;;;;9.20;8.40;;;9.70;99.90;;;;;;6301490;28;20323;-55
2022/04/24 06:20:33;;;;;;;8.80;8.07;;;9.80;99.90;;;;;;6307597;28;20233;-55
2022/04/24 06:23:35;;;;;;;8.63;7.93;;;10.00;99.90;;;;;;6304579;28;20338;-54
2022/04/24 06:26:41;;;;;;;9.70;8.80;;;10.20;99.90;;;;;;6328574;27;20258;-54
2022/04/24 06:29:44;;;;;;;8.87;7.97;;;10.30;99.90;;;;;;6332461;27;20238;-55
2022/04/24 06:32:46;;;;;;;9.53;8.60;;;10.50;99.90;;;;;;6332043;27;20425;-54
2022/04/24 06:35:49;;;;;;;9.17;8.30;;;10.70;99.90;;;;;;6331347;27;20267;-54
2022/04/24 06:38:55;;;;;;;9.70;8.83;;;10.90;99.90;;;;;;6315010;27;20565;-54
2022/04/24 06:41:59;;;;;;;9.70;8.53;;;11.00;99.90;;;;;;6327813;27;20232;-52
2022/04/24 06:45:02;;;;;;;8.60;8.00;;;11.30;99.90;;;;;;6303604;28;20580;-55
2022/04/24 06:48:09;;;;;;;8.87;8.17;;;11.50;99.90;;;;;;6311395;28;20242;-55
2022/04/24 06:51:12;;;;;;;8.90;8.37;;;11.80;99.90;;;;;;6310783;28;20239;-55
2022/04/24 06:54:15;;;;;;;8.37;7.67;;;12.00;99.90;;;;;;6306905;27;20347;-54
2022/04/24 06:57:19;;;;;;;9.63;8.63;;;12.10;99.90;;;;;;6332747;27;20231;-54
2022/04/24 07:00:23;;;;;;;10.33;9.40;;;12.20;99.90;;;;;;6341857;27;20461;-54
2022/04/24 07:03:29;;;;;;;9.73;8.93;;;12.20;99.90;;;;;;6336388;27;20316;-54
2022/04/24 07:06:31;;;;;;;10.57;9.63;;;12.30;99.90;;;;;;6340238;27;20767;-54
2022/04/24 07:09:34;;;;;;;10.00;8.97;;;12.40;99.90;;;;;;6330034;27;20361;-54
2022/04/24 07:12:49;;;;;;;9.77;8.87;;;12.30;99.90;;;;;;6331818;28;20253;-55
2022/04/24 07:15:51;;;;;;;8.80;8.00;;;12.30;99.90;;;;;;6333667;27;20246;-53
2022/04/24 07:18:55;;;;;;;9.43;7.97;;;12.50;99.90;;;;;;6342218;27;20235;-54
2022/04/24 07:21:58;;;;;;;9.63;8.83;;;12.60;99.90;;;;;;6334334;27;20286;-55
2022/04/24 07:25:05;;;;;;;9.17;8.47;;;12.80;99.90;;;;;;6333232;27;20289;-54
2022/04/24 07:28:09;;;;;;;9.90;9.00;;;13.00;99.90;;;;;;6341932;27;20265;-57
2022/04/24 07:31:14;;;;;;;9.40;8.53;;;13.10;99.90;;;;;;6339712;27;20248;-56
2022/04/24 07:34:17;;;;;;;9.20;8.50;;;13.10;99.90;;;;;;6337866;27;20357;-55
2022/04/24 07:37:19;;;;;;;9.13;8.30;;;13.10;99.90;;;;;;6334565;27;20243;-55
2022/04/24 07:40:24;;;;;;;8.47;7.70;;;13.20;99.90;;;;;;6334517;27;20292;-53
2022/04/24 07:43:28;;;;;;;8.60;7.90;;;13.30;99.90;;;;;;6335039;27;20859;-55
2022/04/24 07:46:31;;;;;;;8.00;7.40;;;13.30;99.90;;;;;;6336614;27;20238;-54
2022/04/24 07:49:34;;;;;;;8.30;7.70;;;13.50;99.90;;;;;;6326809;27;20508;-55
2022/04/24 07:52:37;;;;;;;8.03;7.20;;;13.70;99.90;;;;;;6331303;28;20647;-55
2022/04/24 07:55:42;;;;;;;8.10;7.37;;;13.90;99.90;;;;;;6331402;27;20244;-55
2022/04/24 07:58:46;;;;;;;8.33;7.63;;;13.90;99.90;;;;;;6331642;27;20280;-53
2022/04/24 08:01:51;;;;;;;9.00;7.17;;;14.00;99.90;;;;;;6335734;27;20671;-55
2022/04/24 08:04:54;;;;;;;7.43;6.90;;;14.10;99.90;;;;;;6338036;27;20301;-55
2022/04/24 08:07:59;;;;;;;7.50;6.63;;;14.00;99.90;;;;;;6306593;28;20225;-55
2022/04/24 08:11:01;;;;;;;7.50;7.00;;;13.90;99.90;;;;;;6308408;28;20299;-55
2022/04/24 08:14:05;;;;;;;6.77;6.03;;;14.10;99.90;;;;;;6327234;27;20342;-55
2022/04/24 08:17:08;;;;;;;7.23;6.63;;;14.30;99.90;;;;;;6310975;28;20244;-55
2022/04/24 08:20:13;;;;;;;7.27;6.67;;;14.60;99.90;;;;;;6330803;27;20303;-54
2022/04/24 08:23:17;;;;;;;7.00;6.37;;;14.90;99.90;;;;;;6334844;27;20441;-56
2022/04/24 08:26:19;;;;;;;6.67;6.20;;;14.90;99.90;;;;;;6331321;27;20277;-55
2022/04/24 08:29:23;;;;;;;6.40;6.07;;;15.10;99.90;;;;;;6332260;27;20686;-53
2022/04/24 08:32:26;;;;;;;6.77;5.90;;;15.10;99.90;;;;;;6322752;27;20224;-55
2022/04/24 08:35:28;;;;;;;6.50;6.00;;;15.20;99.90;;;;;;6334272;27;20724;-54
2022/04/24 08:38:31;;;;;;;7.23;6.53;;;15.30;99.90;;;;;;6324068;27;20225;-55
2022/04/24 08:41:40;;;;;;;6.63;6.03;;;15.40;99.90;;;;;;6306058;28;20224;-55
2022/04/24 08:44:44;;;;;;;5.77;5.47;;;15.30;99.90;;;;;;6308926;28;20244;-55
2022/04/24 08:47:55;;;;;;;6.53;6.03;;;15.30;99.90;;;;;;6320732;28;20238;-55
2022/04/24 08:51:00;;;;;;;6.43;5.90;;;15.40;99.90;;;;;;6332227;28;20319;-54
2022/04/24 08:54:03;;;;;;;6.60;6.20;;;15.60;99.90;;;;;;6333822;28;20278;-55
2022/04/24 08:57:06;;;;;;;6.50;5.97;;;15.70;99.90;;;;;;6325692;28;20233;-55
2022/04/24 09:00:11;;;;;;;7.80;6.23;;;15.70;99.90;;;;;;6333602;27;20236;-53
2022/04/24 09:03:29;;;;;;;6.57;5.93;;;15.70;99.90;;;;;;6329968;27;20242;-55
2022/04/24 09:06:32;;;;;;;6.60;6.13;;;15.70;99.90;;;;;;6333724;27;20240;-54
2022/04/24 09:09:42;;;;;;;5.83;5.40;;;15.80;99.90;;;;;;6329186;27;20263;-60
2022/04/24 09:12:53;;;;;;;7.17;6.57;;;15.90;99.90;;;;;;6334021;28;20908;-54
2022/04/24 09:15:57;;;;;;;7.40;6.90;;;16.10;99.90;;;;;;6333187;27;20304;-55
2022/04/24 09:19:00;;;;;;;6.97;6.47;;;16.10;99.90;;;;;;6331104;27;20263;-56
2022/04/24 09:22:06;;;;;;;6.30;6.00;;;16.20;99.90;;;;;;6332371;27;20377;-54
2022/04/24 09:25:11;;;;;;;6.17;5.77;;;16.30;99.90;;;;;;6330517;27;20595;-53
2022/04/24 09:28:14;;;;;;;6.93;6.47;;;16.50;99.90;;;;;;6333384;28;20372;-55
2022/04/24 09:31:18;;;;;;;8.77;6.50;;;16.50;99.90;;;;;;6332714;27;20232;-55
2022/04/24 09:34:22;;;;;;;7.17;6.60;;;16.60;99.90;;;;;;6334791;27;20756;-54
2022/04/24 09:37:25;;;;;;;6.77;6.20;;;16.60;99.90;;;;;;6325976;28;20517;-54
2022/04/24 09:40:38;;;;;;;7.50;6.93;;;16.60;99.90;;;;;;6330920;27;20716;-55
2022/04/24 09:43:42;;;;;;;6.67;6.07;;;16.80;99.90;;;;;;6335434;27;20227;-55
2022/04/24 09:46:48;;;;;;;6.90;6.40;;;16.80;99.90;;;;;;6332287;27;20356;-57
2022/04/24 09:49:51;;;;;;;7.07;6.43;;;16.90;99.90;;;;;;6334015;27;20617;-54
2022/04/24 09:52:56;;;;;;;7.20;6.70;;;17.00;99.90;;;;;;6335873;27;20306;-55
2022/04/24 09:56:00;;;;;;;6.67;6.17;;;17.10;99.90;;;;;;6327405;27;20246;-55
2022/04/24 09:59:04;;;;;;;6.13;5.83;;;17.20;99.90;;;;;;6338683;27;20301;-55
2022/04/24 10:02:09;;;;;;;7.07;6.57;;;17.20;99.90;;;;;;6335285;27;20334;-54
2022/04/24 10:05:14;;;;;;;6.90;6.40;;;17.30;99.90;;;;;;6330327;27;20240;-53
2022/04/24 10:08:18;;;;;;;7.13;6.33;;;17.40;99.90;;;;;;6332016;28;20656;-54
2022/04/24 10:11:26;;;;;;;7.23;6.83;;;17.30;99.90;;;;;;6324229;27;20228;-54
2022/04/24 10:14:29;;;;;;;7.43;7.03;;;17.30;99.90;;;;;;6327516;28;20362;-54
2022/04/24 10:17:53;;;;;;;7.23;6.70;;;17.30;99.90;;;;;;6330456;28;20483;-55
2022/04/24 10:21:20;;;;;;;6.90;6.30;;;17.20;99.90;;;;;;6330531;27;20235;-54
2022/04/24 10:24:23;;;;;;;6.50;6.00;;;17.40;99.90;;;;;;6319681;28;20239;-54
2022/04/24 10:27:39;;;;;;;6.77;6.37;;;17.40;99.90;;;;;;6329440;28;20458;-54
2022/04/24 10:30:41;;;;;;;6.50;6.10;;;17.30;99.90;;;;;;6307008;28;20307;-55
2022/04/24 10:33:52;;;;;;;6.10;5.80;;;17.30;99.90;;;;;;6312029;27;20784;-54
2022/04/24 10:36:56;;;;;;;6.10;5.80;;;17.40;99.90;;;;;;6306164;28;20241;-56
2022/04/24 10:40:00;;;;;;;6.70;6.30;;;17.30;99.90;;;;;;6297955;28;20406;-55
2022/04/24 10:43:07;;;;;;;6.03;5.63;;;17.30;99.90;;;;;;6307084;28;20228;-55
2022/04/24 10:46:17;;;;;;;5.87;5.47;;;17.30;99.90;;;;;;6299533;28;20738;-55
2022/04/24 10:49:26;;;;;;;6.30;5.90;;;17.40;99.90;;;;;;6306079;28;20232;-53
2022/04/24 10:52:38;;;;;;;5.97;5.47;;;17.50;99.90;;;;;;6305475;28;20258;-56
2022/04/24 10:55:42;;;;;;;5.80;5.40;;;17.70;99.90;;;;;;6303283;28;20728;-54
2022/04/24 10:58:50;;;;;;;6.40;5.90;;;17.90;99.90;;;;;;6327611;28;20747;-55
2022/04/24 11:01:55;;;;;;;5.37;5.17;;;17.90;99.90;;;;;;6337749;27;20629;-55
2022/04/24 11:05:02;;;;;;;5.60;5.30;;;17.70;99.90;;;;;;6327287;27;20231;-55
2022/04/24 11:08:06;;;;;;;5.83;5.40;;;17.60;99.90;;;;;;6331735;28;20251;-55
2022/04/24 11:11:13;;;;;;;5.40;5.20;;;17.60;99.90;;;;;;6324809;28;20244;-54
2022/04/24 11:14:20;;;;;;;5.53;5.17;;;17.70;99.90;;;;;;6326353;28;20266;-55
2022/04/24 11:17:23;;;;;;;5.53;5.03;;;17.70;99.90;;;;;;6329256;28;20343;-55
2022/04/24 11:20:31;;;;;;;5.30;5.10;;;17.80;99.90;;;;;;6331402;27;20727;-54
2022/04/24 11:23:36;;;;;;;5.20;4.70;;;17.80;99.90;;;;;;6326255;28;20470;-55
2022/04/24 11:26:39;;;;;;;5.53;5.07;;;17.80;99.90;;;;;;6328433;28;20296;-54
2022/04/24 11:29:44;;;;;;;6.03;5.00;;;17.80;99.90;;;;;;6331129;28;20671;-54
2022/04/24 11:33:00;;;;;;;5.43;4.97;;;17.80;99.90;;;;;;6331413;28;20330;-54
2022/04/24 11:36:05;;;;;;;5.83;4.77;;;18.00;99.90;;;;;;6310954;28;20233;-54
2022/04/24 11:39:08;;;;;;;5.20;4.80;;;18.20;99.90;;;;;;6307398;28;20349;-54
2022/04/24 11:42:11;;;;;;;5.53;4.93;;;18.40;99.90;;;;;;6303535;28;20335;-54
2022/04/24 11:52:09;;;;;;;5.17;4.97;;;18.70;99.90;;;;;;6305070;28;20471;-54
2022/04/24 11:55:14;;;;;;;4.80;4.60;;;18.70;99.90;;;;;;6326562;27;20236;-55
2022/04/24 11:58:17;;;;;;;4.73;4.37;;;18.60;99.90;;;;;;6307751;28;20564;-54
2022/04/24 12:01:20;;;;;;;4.57;4.27;;;18.60;99.90;;;;;;6307301;28;20241;-59
2022/04/24 12:04:28;;;;;;;5.10;4.67;;;18.70;99.90;;;;;;6310293;28;20741;-54
2022/04/24 12:07:33;;;;;;;4.43;4.10;;;18.90;99.90;;;;;;6310296;28;20700;-54
2022/04/24 12:10:44;;;;;;;4.73;4.43;;;19.00;99.90;;;;;;6301362;28;20285;-55
2022/04/24 12:13:46;;;;;;;4.50;4.30;;;19.10;99.90;;;;;;6310281;28;20834;-55
2022/04/24 12:16:49;;;;;;;5.10;4.87;;;19.20;99.90;;;;;;6309282;28;20232;-49
2022/04/24 12:19:54;;;;;;;7.37;4.40;;;19.30;99.90;;;;;;6308779;28;20264;-54
2022/04/24 12:23:09;;;;;;;5.30;4.80;;;19.30;99.90;;;;;;6307312;28;20237;-55
2022/04/24 12:26:12;;;;;;;4.60;4.40;;;19.30;99.90;;;;;;6311102;27;20261;-53
2022/04/24 12:29:15;;;;;;;4.70;4.50;;;19.40;99.90;;;;;;6313888;27;20281;-55
2022/04/24 12:32:21;;;;;;;4.60;4.40;;;19.30;99.90;;;;;;6303020;28;20309;-54
2022/04/24 12:35:28;;;;;;;5.50;5.10;;;19.40;99.90;;;;;;6314600;28;20615;-53
2022/04/24 12:38:32;;;;;;;5.33;4.73;;;19.60;99.90;;;;;;6301167;27;20371;-55
2022/04/24 12:41:38;;;;;;;4.90;4.60;;;19.60;99.90;;;;;;6312406;27;20688;-54
2022/04/24 12:44:40;;;;;;;5.23;4.73;;;19.60;99.90;;;;;;6336518;27;20787;-55
2022/04/24 12:47:44;;;;;;;4.77;4.47;;;19.30;99.90;;;;;;6332239;27;20373;-55
2022/04/24 12:50:48;;;;;;;4.63;4.40;;;19.10;99.90;;;;;;6333165;27;20307;-54
2022/04/24 12:53:53;;;;;;;5.20;5.00;;;19.30;99.90;;;;;;6320232;27;20232;-55
2022/04/24 12:56:56;;;;;;;6.67;4.60;;;19.40;99.90;;;;;;6332933;27;20308;-54
2022/04/24 12:59:59;;;;;;;4.17;3.97;;;19.50;99.90;;;;;;6328905;27;20319;-55
2022/04/24 13:03:02;;;;;;;4.50;4.10;;;19.60;99.90;;;;;;6299284;28;20557;-53
2022/04/24 13:06:05;;;;;;;5.17;4.77;;;19.50;99.90;;;;;;6305120;28;20242;-54
2022/04/24 13:09:11;;;;;;;4.80;4.53;;;19.40;99.90;;;;;;6294611;28;20236;-54
2022/04/24 13:12:13;;;;;;;4.00;3.90;;;19.30;99.90;;;;;;6328747;27;20223;-53
2022/04/24 13:15:16;;;;;;;4.03;3.73;;;19.30;99.90;;;;;;6310336;28;20693;-55
2022/04/24 13:18:18;;;;;;;4.43;4.20;;;19.40;99.90;;;;;;6305573;28;20240;-55
2022/04/24 13:21:22;;;;;;;5.53;3.90;;;19.50;99.90;;;;;;6322347;27;20675;-54
2022/04/24 13:24:26;;;;;;;4.27;4.13;;;19.60;99.90;;;;;;6310383;28;20259;-54
2022/04/24 13:27:32;;;;;;;4.23;4.03;;;19.50;99.90;;;;;;6303091;28;20709;-54
2022/04/24 13:30:35;;;;;;;5.10;3.97;;;19.40;99.90;;;;;;6300232;28;20822;-55
2022/04/24 13:33:38;;;;;;;3.83;3.73;;;19.10;99.90;;;;;;6302381;28;20825;-55
2022/04/24 13:36:41;;;;;;;4.50;4.13;;;19.20;99.90;;;;;;6327388;27;20319;-54
2022/04/24 13:39:45;;;;;;;5.33;3.90;;;19.20;99.90;;;;;;6327642;28;20228;-55
2022/04/24 13:42:48;;;;;;;4.27;4.07;;;19.00;99.90;;;;;;6332677;28;20302;-53
2022/04/24 13:45:52;;;;;;;5.80;4.03;;;18.90;99.90;;;;;;6333710;27;20248;-54
2022/04/24 13:49:01;;;;;;;4.27;4.00;;;18.90;99.90;;;;;;6333605;27;20262;-55
2022/04/24 13:52:04;;;;;;;4.73;4.43;;;18.90;99.90;;;;;;6331262;27;20243;-54
2022/04/24 13:55:09;;;;;;;8.23;3.57;;;18.90;99.90;;;;;;6329896;27;20334;-54
2022/04/24 13:58:12;;;;;;;4.90;4.50;;;18.90;99.90;;;;;;6306391;28;20608;-54
2022/04/24 14:01:14;;;;;;;4.60;4.37;;;19.00;99.90;;;;;;6313121;28;20241;-53
2022/04/24 14:04:17;;;;;;;4.63;4.33;;;19.00;99.90;;;;;;6305607;28;20743;-54
2022/04/24 14:07:21;;;;;;;4.60;4.10;;;19.00;99.90;;;;;;6302684;28;20652;-54
2022/04/24 14:10:25;;;;;;;4.50;4.27;;;19.10;99.90;;;;;;6325241;28;20227;-55
2022/04/24 14:13:28;;;;;;;4.20;4.00;;;19.20;99.90;;;;;;6332526;27;20488;-55
2022/04/24 14:16:31;;;;;;;4.13;4.00;;;19.30;99.90;;;;;;6333482;27;20323;-55
2022/04/24 14:19:35;;;;;;;3.87;3.63;;;19.30;99.90;;;;;;6326720;28;20227;-54
2022/04/24 14:22:37;;;;;;;5.50;3.90;;;19.30;99.90;;;;;;6335774;27;20311;-54
2022/04/24 14:25:41;;;;;;;3.90;3.80;;;19.30;99.90;;;;;;6331860;27;20611;-55
2022/04/24 14:28:44;;;;;;;4.00;3.80;;;19.20;99.90;;;;;;6329483;28;20602;-53
2022/04/24 14:31:48;;;;;;;4.47;4.27;;;18.80;99.90;;;;;;6331915;27;20231;-54
2022/04/24 14:34:51;;;;;;;4.33;4.13;;;18.60;99.90;;;;;;6327170;28;20235;-54
2022/04/24 14:37:55;;;;;;;5.27;4.60;;;18.50;99.90;;;;;;6325855;28;20733;-56
2022/04/24 14:40:59;;;;;;;4.27;3.97;;;18.40;99.90;;;;;;6329271;27;20312;-54
2022/04/24 14:44:02;;;;;;;3.97;3.77;;;18.30;99.90;;;;;;6328170;28;20257;-53
2022/04/24 14:57:08;;;;;;;4.00;3.90;;;18.20;99.90;;;;;;6306565;28;20264;-55
2022/04/24 15:00:12;;;;;;;6.07;3.80;;;18.10;99.90;;;;;;6310330;28;20315;-55
2022/04/24 15:03:16;;;;;;;4.20;3.80;;;18.00;99.90;;;;;;6319729;27;20259;-55
2022/04/24 15:06:19;;;;;;;4.27;3.97;;;17.90;99.90;;;;;;6305268;28;20740;-54
2022/04/24 15:09:22;;;;;;;4.07;3.97;;;17.70;99.90;;;;;;6306477;28;20240;-55
2022/04/24 15:12:27;;;;;;;4.90;4.40;;;17.80;99.90;;;;;;6307356;28;20299;-55
2022/04/24 15:15:30;;;;;;;4.30;4.17;;;17.70;99.90;;;;;;6306742;28;20654;-55
2022/04/24 15:18:33;;;;;;;4.07;3.77;;;17.70;99.90;;;;;;6298206;28;20244;-54
2022/04/24 15:21:35;;;;;;;3.67;3.50;;;17.60;99.90;;;;;;6307954;28;20231;-53
2022/04/24 15:24:38;;;;;;;4.40;4.00;;;17.60;99.90;;;;;;6332457;27;20673;-57
2022/04/24 15:28:02;;;;;;;3.90;3.80;;;17.60;99.90;;;;;;6333986;27;20235;-54
2022/04/24 15:31:05;;;;;;;4.13;3.70;;;17.50;99.90;;;;;;6336305;27;20284;-54
2022/04/24 15:34:09;;;;;;;4.10;3.90;;;17.50;99.90;;;;;;6334789;28;20242;-54
2022/04/24 15:37:12;;;;;;;3.87;3.67;;;17.40;99.90;;;;;;6331627;27;20827;-54
2022/04/24 15:40:15;;;;;;;3.60;3.43;;;17.20;99.90;;;;;;6327093;27;20232;-55
2022/04/24 15:43:19;;;;;;;5.50;3.90;;;17.20;99.90;;;;;;6333662;28;20304;-54
2022/04/24 15:46:22;;;;;;;3.43;3.33;;;17.10;99.90;;;;;;6334830;27;20348;-55
2022/04/24 15:49:25;;;;;;;3.77;3.60;;;17.00;99.90;;;;;;6335247;27;20603;-55
2022/04/24 15:52:28;;;;;;;4.53;3.73;;;16.90;99.90;;;;;;6336386;28;20236;-55
2022/04/24 15:55:33;;;;;;;3.90;3.80;;;16.90;99.90;;;;;;6328249;28;20240;-55
2022/04/24 15:58:37;;;;;;;5.20;4.77;;;16.80;99.90;;;;;;6332587;28;20724;-54
2022/04/24 16:01:40;;;;;;;4.03;3.93;;;16.70;99.90;;;;;;6318478;28;20369;-55
2022/04/24 16:04:43;;;;;;;3.87;3.77;;;16.70;99.90;;;;;;6313987;28;20236;-53
2022/04/24 16:07:46;;;;;;;4.20;3.90;;;16.60;99.90;;;;;;6307591;28;20313;-54
2022/04/24 16:10:52;;;;;;;5.27;4.53;;;16.50;99.90;;;;;;6309774;28;20707;-54
2022/04/24 16:13:58;;;;;;;4.93;4.47;;;16.40;99.90;;;;;;6320471;28;20240;-54
2022/04/24 16:17:01;;;;;;;5.20;4.70;;;16.30;99.90;;;;;;6320374;28;20307;-54
2022/04/24 16:20:06;;;;;;;4.70;4.40;;;16.20;99.90;;;;;;6330907;28;20256;-55